Time,TemperatureF,DewpointF,PressureIn,WindDirection,WindDirectionDegrees,WindSpeedMPH,WindSpeedGustMPH,Humidity,HourlyPrecipIn,Conditions,Clouds,dailyrainin,SoftwareType,DateUTC
2013-06-23 00:02:00,62.0,41.0,-100.00,North,-999,0.0,0.0,46,-99.99,,,-99.99,,2013-06-23 07:02:00,
2013-06-23 00:12:00,62.0,42.0,-100.00,East,81,0.0,2.0,47,-99.99,,,-99.99,,2013-06-23 07:12:00,
2013-06-23 00:22:00,62.0,42.0,-100.00,East,81,0.0,2.0,47,-99.99,,,-99.99,,2013-06-23 07:22:00,
2013-06-23 01:11:00,61.0,40.0,-100.00,SSW,204,0.0,2.0,45,-99.99,,,-99.99,,2013-06-23 08:11:00,
2013-06-23 01:22:00,61.0,41.0,-100.00,NNE,19,1.0,2.0,48,-99.99,,,-99.99,,2013-06-23 08:22:00,
2013-06-23 01:42:00,60.0,37.0,-100.00,NNE,14,0.0,1.0,42,-99.99,,,-99.99,,2013-06-23 08:42:00,
2013-06-23 02:12:00,60.0,37.0,-100.00,North,-999,0.0,0.0,42,-99.99,,,-99.99,,2013-06-23 09:12:00,
2013-06-23 02:22:00,60.0,34.0,-100.00,SE,140,0.0,1.0,38,-99.99,,,-99.99,,2013-06-23 09:22:00,
2013-06-23 04:11:00,57.0,32.0,-100.00,SSE,165,1.0,2.0,39,-99.99,,,-99.99,,2013-06-23 11:11:00,
2013-06-23 04:22:00,58.0,33.0,-100.00,SSE,159,1.0,2.0,38,-99.99,,,-99.99,,2013-06-23 11:22:00,
2013-06-23 04:33:00,58.0,33.0,-100.00,ESE,121,0.0,1.0,38,-99.99,,,-99.99,,2013-06-23 11:33:00,
2013-06-23 04:43:00,58.0,31.0,-100.00,SSE,164,1.0,1.0,36,-99.99,,,-99.99,,2013-06-23 11:43:00,
2013-06-23 05:11:00,59.0,32.0,-100.00,South,188,0.0,1.0,36,-99.99,,,-99.99,,2013-06-23 12:11:00,
2013-06-23 05:33:00,58.0,31.0,-100.00,North,-999,0.0,0.0,36,-99.99,,,-99.99,,2013-06-23 12:33:00,
2013-06-23 05:42:00,57.0,31.0,-100.00,ESE,109,0.0,1.0,37,-99.99,,,-99.99,,2013-06-23 12:42:00,
2013-06-23 06:11:00,57.0,30.0,-100.00,ESE,113,0.0,2.0,35,-99.99,,,-99.99,,2013-06-23 13:11:00,
2013-06-23 07:04:00,61.0,30.0,-100.00,SSE,160,1.0,2.0,31,-99.99,,,-99.99,,2013-06-23 14:04:00,
2013-06-23 07:52:00,65.0,27.0,-100.00,SSE,156,4.0,7.0,24,-99.99,,,-99.99,,2013-06-23 14:52:00,
2013-06-23 08:11:00,66.0,28.0,-100.00,SSE,161,5.0,8.0,24,-99.99,,,-99.99,,2013-06-23 15:11:00,
2013-06-23 08:22:00,67.0,29.0,-100.00,South,181,5.0,7.0,24,-99.99,,,-99.99,,2013-06-23 15:22:00,
2013-06-23 08:52:00,68.0,30.0,-100.00,South,176,5.0,7.0,24,-99.99,,,-99.99,,2013-06-23 15:52:00,
2013-06-23 09:11:00,68.0,30.0,-100.00,SSW,194,4.0,8.0,24,-99.99,,,-99.99,,2013-06-23 16:11:00,
2013-06-23 09:22:00,68.0,30.0,-100.00,SSW,194,4.0,8.0,24,-99.99,,,-99.99,,2013-06-23 16:22:00,
2013-06-23 09:36:00,69.0,32.0,-100.00,South,188,5.0,8.0,25,-99.99,,,-99.99,,2013-06-23 16:36:00,
2013-06-23 09:42:00,69.0,32.0,-100.00,South,188,5.0,8.0,25,-99.99,,,-99.99,,2013-06-23 16:42:00,
2013-06-23 09:52:00,69.0,34.0,-100.00,South,185,6.0,9.0,27,-99.99,,,-99.99,,2013-06-23 16:52:00,
2013-06-23 10:11:00,69.0,37.0,-100.00,South,188,6.0,11.0,31,-99.99,,,-99.99,,2013-06-23 17:11:00,
2013-06-23 10:22:00,69.0,40.0,-100.00,SSW,193,5.0,10.0,35,-99.99,,,-99.99,,2013-06-23 17:22:00,
2013-06-23 10:33:00,69.0,39.0,-100.00,South,181,5.0,9.0,34,-99.99,,,-99.99,,2013-06-23 17:33:00,
2013-06-23 10:43:00,70.0,40.0,-100.00,South,191,5.0,8.0,33,-99.99,,,-99.99,,2013-06-23 17:43:00,
2013-06-23 10:52:00,70.0,38.0,-100.00,South,190,4.0,8.0,31,-99.99,,,-99.99,,2013-06-23 17:52:00,
2013-06-23 11:22:00,72.0,37.0,-100.00,South,190,6.0,10.0,28,-99.99,,,-99.99,,2013-06-23 18:22:00,
2013-06-23 11:34:00,72.0,38.0,-100.00,SSW,192,5.0,9.0,29,-99.99,,,-99.99,,2013-06-23 18:34:00,
2013-06-23 11:42:00,73.0,39.0,-100.00,SW,215,4.0,10.0,29,-99.99,,,-99.99,,2013-06-23 18:42:00,
2013-06-23 11:53:00,73.0,41.0,-100.00,SW,227,4.0,9.0,31,-99.99,,,-99.99,,2013-06-23 18:53:00,
2013-06-23 12:11:00,72.0,43.0,-100.00,SSW,208,5.0,12.0,35,-99.99,,,-99.99,,2013-06-23 19:11:00,
2013-06-23 12:21:00,72.0,44.0,-100.00,SSW,206,3.0,10.0,37,-99.99,,,-99.99,,2013-06-23 19:21:00,
2013-06-23 12:32:00,73.0,44.0,-100.00,SW,216,4.0,9.0,35,-99.99,,,-99.99,,2013-06-23 19:32:00,
2013-06-23 13:11:00,73.0,47.0,-100.00,SSW,213,4.0,9.0,39,-99.99,,,-99.99,,2013-06-23 20:11:00,
2013-06-23 13:23:00,73.0,47.0,-100.00,SSW,213,4.0,9.0,39,-99.99,,,-99.99,,2013-06-23 20:23:00,
2013-06-23 13:42:00,72.0,47.0,-100.00,SW,219,4.0,10.0,41,-99.99,,,-99.99,,2013-06-23 20:42:00,
2013-06-23 13:52:00,73.0,47.0,-100.00,SW,217,3.0,9.0,39,-99.99,,,-99.99,,2013-06-23 20:52:00,
2013-06-23 14:11:00,73.0,47.0,-100.00,SW,226,3.0,9.0,40,-99.99,,,-99.99,,2013-06-23 21:11:00,
2013-06-23 14:22:00,73.0,48.0,-100.00,WSW,253,3.0,10.0,41,-99.99,,,-99.99,,2013-06-23 21:22:00,
2013-06-23 14:52:00,72.0,48.0,-100.00,NW,323,3.0,7.0,43,-99.99,,,-99.99,,2013-06-23 21:52:00,
2013-06-23 15:11:00,72.0,48.0,-100.00,WSW,248,3.0,7.0,43,-99.99,,,-99.99,,2013-06-23 22:11:00,
2013-06-23 15:22:00,73.0,49.0,-100.00,West,267,3.0,9.0,42,-99.99,,,-99.99,,2013-06-23 22:22:00,
2013-06-23 15:32:00,72.0,49.0,-100.00,WSW,242,3.0,10.0,44,-99.99,,,-99.99,,2013-06-23 22:32:00,
2013-06-23 15:43:00,72.0,49.0,-100.00,WSW,238,3.0,8.0,45,-99.99,,,-99.99,,2013-06-23 22:43:00,
2013-06-23 16:11:00,71.0,49.0,-100.00,SW,214,4.0,9.0,45,-99.99,,,-99.99,,2013-06-23 23:11:00,
2013-06-23 16:22:00,72.0,48.0,-100.00,WSW,240,4.0,9.0,43,-99.99,,,-99.99,,2013-06-23 23:22:00,
2013-06-23 16:44:00,72.0,49.0,-100.00,SW,221,4.0,9.0,44,-99.99,,,-99.99,,2013-06-23 23:44:00,
2013-06-23 16:52:00,71.0,49.0,-100.00,SW,219,3.0,10.0,46,-99.99,,,-99.99,,2013-06-23 23:52:00,
2013-06-23 17:01:00,70.0,49.0,-100.00,SW,217,5.0,11.0,47,-99.99,,,-99.99,,2013-06-24 00:01:00,
2013-06-23 17:11:00,70.0,49.0,-100.00,SW,217,5.0,11.0,47,-99.99,,,-99.99,,2013-06-24 00:11:00,
2013-06-23 18:11:00,67.0,50.0,-100.00,SW,222,3.0,6.0,54,-99.99,,,-99.99,,2013-06-24 01:11:00,
2013-06-23 18:21:00,67.0,50.0,-100.00,SW,222,3.0,6.0,54,-99.99,,,-99.99,,2013-06-24 01:21:00,
2013-06-23 18:32:00,69.0,50.0,-100.00,WSW,248,2.0,6.0,50,-99.99,,,-99.99,,2013-06-24 01:32:00,
2013-06-23 18:42:00,67.0,49.0,-100.00,SSW,212,2.0,7.0,53,-99.99,,,-99.99,,2013-06-24 01:42:00,
2013-06-23 18:52:00,67.0,50.0,-100.00,SW,221,2.0,5.0,55,-99.99,,,-99.99,,2013-06-24 01:52:00,
2013-06-23 19:01:00,65.0,50.0,-100.00,WNW,289,2.0,5.0,59,-99.99,,,-99.99,,2013-06-24 02:01:00,
2013-06-23 19:11:00,65.0,50.0,-100.00,WNW,289,2.0,5.0,59,-99.99,,,-99.99,,2013-06-24 02:11:00,
2013-06-23 19:21:00,64.0,50.0,-100.00,NW,311,2.0,4.0,60,-99.99,,,-99.99,,2013-06-24 02:21:00,
2013-06-23 19:33:00,64.0,50.0,-100.00,NW,325,3.0,5.0,61,-99.99,,,-99.99,,2013-06-24 02:33:00,
2013-06-23 19:42:00,63.0,51.0,-100.00,NNW,332,4.0,6.0,64,-99.99,,,-99.99,,2013-06-24 02:42:00,
2013-06-23 20:11:00,62.0,51.0,-100.00,NNW,334,2.0,4.0,66,-99.99,,,-99.99,,2013-06-24 03:11:00,
2013-06-23 20:22:00,62.0,50.0,-100.00,NW,308,2.0,4.0,64,-99.99,,,-99.99,,2013-06-24 03:22:00,
2013-06-23 21:11:00,61.0,47.0,-100.00,South,181,0.0,2.0,61,-99.99,,,-99.99,,2013-06-24 04:11:00,
2013-06-23 21:22:00,61.0,49.0,-100.00,SSE,167,0.0,1.0,65,-99.99,,,-99.99,,2013-06-24 04:22:00,
2013-06-23 21:43:00,60.0,50.0,-100.00,SSW,192,1.0,2.0,69,-99.99,,,-99.99,,2013-06-24 04:43:00,
2013-06-23 21:52:00,60.0,49.0,-100.00,SSW,204,3.0,5.0,67,-99.99,,,-99.99,,2013-06-24 04:52:00,
2013-06-23 22:12:00,59.0,50.0,-100.00,SW,223,5.0,7.0,72,-99.99,,,-99.99,,2013-06-24 05:12:00,
2013-06-23 22:22:00,58.0,50.0,-100.00,SW,218,6.0,7.0,74,-99.99,,,-99.99,,2013-06-24 05:22:00,
2013-06-23 22:43:00,58.0,50.0,-100.00,SSW,210,5.0,7.0,76,-99.99,,,-99.99,,2013-06-24 05:43:00,
2013-06-23 23:12:00,58.0,50.0,-100.00,SW,222,4.0,5.0,75,-99.99,,,-99.99,,2013-06-24 06:12:00,
2013-06-23 23:22:00,58.0,50.0,-100.00,SW,222,4.0,5.0,75,-99.99,,,-99.99,,2013-06-24 06:22:00,
2013-06-23 23:43:00,60.0,41.0,-100.00,WSW,257,2.0,4.0,49,-99.99,,,-99.99,,2013-06-24 06:43:00,